Time;durP1;ratioP1;P1;durP2;ratioP2;P2;SDS_P1;SDS_P2;PMS_P1;PMS_P2;Temp;Humidity;BMP_temperature;BMP_pressure;BME280_temperature;BME280_humidity;BME280_pressure;Samples;Min_cycle;Max_cycle;Signal;HPM_P1;HPM_P2
2022/01/10 00:31:43;;;;;;;;;;;;;;;;;;;;;
2022/01/10 00:46:08;;;;;;;90.13;60.63;;;1.90;99.90;;;;;;6008924;23;20247;-87
2022/01/10 00:52:37;;;;;;;88.90;52.10;;;1.80;99.90;;;;;;5935715;23;20321;-90
2022/01/10 01:03:05;;;;;;;;;;;;;;;;;;;;;
2022/01/10 01:05:46;;;;;;;91.95;65.95;;;1.80;99.90;;;;;;5843657;24;20272;-90
2022/01/10 01:08:59;;;;;;;90.32;61.25;;;1.70;99.90;;;;;;5840165;24;20494;-90
2022/01/10 01:15:17;;;;;;;89.40;46.70;;;1.70;99.90;;;;;;5956117;23;20212;-87
2022/01/10 01:17:58;;;;;;;86.10;45.53;;;1.60;99.90;;;;;;6069283;23;20151;-87
2022/01/10 01:24:03;;;;;;;88.28;46.00;;;1.70;99.90;;;;;;6103032;23;20218;-86
2022/01/10 01:26:38;;;;;;;94.03;58.80;;;1.60;99.90;;;;;;6104683;23;20143;-86
2022/01/10 01:29:06;;;;;;;89.35;55.28;;;1.60;99.90;;;;;;6104589;23;20127;-86
2022/01/10 01:31:41;;;;;;;91.45;57.83;;;1.50;99.90;;;;;;6076583;23;20147;-86
2022/01/10 01:34:10;;;;;;;89.47;61.03;;;1.50;99.90;;;;;;6104567;23;20174;-86
2022/01/10 01:36:51;;;;;;;94.53;58.00;;;1.40;99.90;;;;;;6106529;23;20450;-86
2022/01/10 01:39:23;;;;;;;89.53;57.88;;;1.50;99.90;;;;;;6082106;23;20149;-86
2022/01/10 01:42:17;;;;;;;89.45;59.60;;;1.50;99.90;;;;;;6108155;23;20128;-86
2022/01/10 01:44:47;;;;;;;87.55;49.67;;;1.50;99.90;;;;;;6080653;23;20178;-85
2022/01/10 01:47:16;;;;;;;84.32;49.95;;;1.50;99.90;;;;;;6081160;23;20158;-86
2022/01/10 01:49:47;;;;;;;91.95;52.58;;;1.60;99.90;;;;;;6106572;23;20151;-86
2022/01/10 01:52:29;;;;;;;87.85;53.67;;;1.60;99.90;;;;;;6081101;23;20147;-86
2022/01/10 01:54:55;;;;;;;95.50;69.55;;;1.60;99.90;;;;;;6105713;23;20175;-86
2022/01/10 01:57:21;;;;;;;88.57;53.05;;;1.60;99.90;;;;;;6105638;23;20522;-86
2022/01/10 01:59:52;;;;;;;97.40;71.53;;;1.70;99.90;;;;;;6079677;23;20156;-86
2022/01/10 02:02:32;;;;;;;93.70;66.40;;;1.70;99.90;;;;;;6105283;23;20351;-86
2022/01/10 02:04:57;;;;;;;96.28;69.90;;;1.70;99.90;;;;;;6105390;23;20170;-86
2022/01/10 02:07:29;;;;;;;99.17;75.53;;;1.70;99.90;;;;;;6079636;23;20238;-86
2022/01/10 02:09:57;;;;;;;91.32;62.72;;;1.70;99.90;;;;;;6105470;23;20367;-86
2022/01/10 02:12:23;;;;;;;89.72;61.55;;;1.70;99.90;;;;;;6080482;23;20151;-86
2022/01/10 02:14:49;;;;;;;100.57;67.80;;;1.70;99.90;;;;;;6105192;23;20174;-86
2022/01/10 02:17:19;;;;;;;96.63;69.20;;;1.80;99.90;;;;;;6079599;23;20380;-86
2022/01/10 02:20:07;;;;;;;96.18;72.45;;;1.70;99.90;;;;;;6105685;23;20731;-86
2022/01/10 02:22:40;;;;;;;94.55;78.00;;;1.80;99.90;;;;;;6080247;23;20190;-86
2022/01/10 02:25:12;;;;;;;102.80;85.47;;;1.80;99.90;;;;;;6104863;23;20163;-86
2022/01/10 02:27:49;;;;;;;102.72;79.40;;;1.80;99.90;;;;;;6105724;23;20135;-86
2022/01/10 02:30:19;;;;;;;102.32;91.30;;;1.90;99.90;;;;;;6104427;23;20139;-86
2022/01/10 02:32:51;;;;;;;95.47;76.20;;;1.90;99.90;;;;;;6079512;23;20169;-86
2022/01/10 02:36:25;;;;;;;99.82;78.40;;;1.90;99.90;;;;;;6079268;23;20691;-86
2022/01/10 02:38:51;;;;;;;94.93;61.80;;;2.00;99.90;;;;;;6097716;23;20177;-86
2022/01/10 02:41:35;;;;;;;;;;;;;;;;;;;;;
2022/01/10 02:44:08;;;;;;;92.50;66.13;;;2.20;99.90;;;;;;6104307;23;20187;-86
2022/01/10 02:46:36;;;;;;;90.60;59.72;;;2.20;99.90;;;;;;6080253;23;20132;-86
2022/01/10 02:49:14;;;;;;;102.45;70.50;;;2.20;99.90;;;;;;6104346;23;20147;-86
2022/01/10 02:51:45;;;;;;;109.70;73.82;;;2.20;99.90;;;;;;6079026;23;20150;-86
2022/01/10 02:54:15;;;;;;;93.47;68.53;;;2.20;99.90;;;;;;6078661;23;20183;-86
2022/01/10 02:57:10;;;;;;;102.45;80.82;;;2.10;99.90;;;;;;6105016;23;20139;-86
2022/01/10 02:59:37;;;;;;;96.00;72.15;;;2.10;99.90;;;;;;6103950;23;20143;-86
2022/01/10 03:02:27;;;;;;;;;;;;;;;;;;;;;
2022/01/10 03:04:55;;;;;;;90.03;51.53;;;2.00;99.90;;;;;;6104146;23;20194;-86
2022/01/10 03:07:23;;;;;;;90.70;60.10;;;2.00;99.90;;;;;;6105055;23;20144;-86
2022/01/10 03:10:01;;;;;;;;;;;;;;;;;;;;;
2022/01/10 03:12:30;;;;;;;86.72;52.53;;;1.90;99.90;;;;;;6107505;23;20577;-86
2022/01/10 03:14:59;;;;;;;90.53;60.65;;;1.90;99.90;;;;;;6104288;23;20194;-86
2022/01/10 03:17:28;;;;;;;97.97;71.15;;;1.80;99.90;;;;;;6103525;23;20593;-86
2022/01/10 03:19:54;;;;;;;91.68;65.70;;;1.80;99.90;;;;;;6080105;23;20147;-86
2022/01/10 03:22:31;;;;;;;93.22;68.97;;;1.70;99.90;;;;;;6106201;23;20152;-86
2022/01/10 03:25:04;;;;;;;100.20;74.75;;;1.70;99.90;;;;;;6106688;23;20179;-86
2022/01/10 03:27:33;;;;;;;93.32;65.55;;;1.70;99.90;;;;;;6105420;23;20144;-86
2022/01/10 03:30:03;;;;;;;104.78;77.78;;;1.70;99.90;;;;;;6078848;23;20294;-86
2022/01/10 03:32:32;;;;;;;98.47;68.50;;;1.60;99.90;;;;;;6105716;23;20131;-86
2022/01/10 03:35:00;;;;;;;93.10;64.88;;;1.60;99.90;;;;;;6080208;23;20183;-86
2022/01/10 03:37:26;;;;;;;94.15;71.00;;;1.60;99.90;;;;;;6079291;23;20147;-86
2022/01/10 03:39:57;;;;;;;103.60;84.05;;;1.60;99.90;;;;;;6079610;23;20478;-86
2022/01/10 03:42:31;;;;;;;96.00;76.30;;;1.50;99.90;;;;;;6104374;23;20124;-86
2022/01/10 03:45:06;;;;;;;101.70;78.35;;;1.50;99.90;;;;;;6103463;23;20219;-86
2022/01/10 03:47:37;;;;;;;96.25;69.88;;;1.40;99.90;;;;;;6104747;23;20127;-86
2022/01/10 03:50:07;;;;;;;93.95;69.18;;;1.40;99.90;;;;;;6080055;23;20148;-86
2022/01/10 03:52:38;;;;;;;90.25;58.80;;;1.40;99.90;;;;;;6104599;23;20239;-86
2022/01/10 03:55:07;;;;;;;91.47;62.20;;;1.30;99.90;;;;;;6111238;23;20167;-88
2022/01/10 03:57:33;;;;;;;89.22;57.95;;;1.30;99.90;;;;;;6084283;23;20174;-86
2022/01/10 04:00:04;;;;;;;89.10;65.17;;;1.20;99.90;;;;;;6105764;23;20140;-86
2022/01/10 04:02:32;;;;;;;91.70;68.43;;;1.20;99.90;;;;;;6106570;23;20120;-86
2022/01/10 04:05:00;;;;;;;87.78;55.50;;;1.20;99.90;;;;;;6080721;23;20171;-86
2022/01/10 04:07:35;;;;;;;94.85;70.53;;;1.20;99.90;;;;;;6106053;23;20203;-86
2022/01/10 04:10:05;;;;;;;91.82;61.50;;;1.10;99.90;;;;;;6106236;23;20497;-86
2022/01/10 04:12:31;;;;;;;97.50;70.35;;;1.10;99.90;;;;;;6078994;23;20155;-86
2022/01/10 04:14:57;;;;;;;89.53;66.13;;;1.00;99.90;;;;;;6079066;23;20190;-86
2022/01/10 04:17:23;;;;;;;90.00;62.60;;;0.90;99.90;;;;;;6105423;23;20371;-86
2022/01/10 04:19:51;;;;;;;93.43;62.83;;;1.00;99.90;;;;;;6080063;23;20585;-86
2022/01/10 04:22:23;;;;;;;90.55;58.78;;;1.00;99.90;;;;;;6105391;23;20725;-86
2022/01/10 04:24:55;;;;;;;93.65;69.68;;;0.90;99.90;;;;;;6103759;23;20210;-86
2022/01/10 04:27:35;;;;;;;92.88;65.25;;;0.90;99.90;;;;;;6103649;23;20143;-86
2022/01/10 04:30:01;;;;;;;92.03;60.65;;;0.80;99.90;;;;;;6103662;23;20154;-86
2022/01/10 04:32:30;;;;;;;86.60;59.33;;;0.80;99.90;;;;;;6104176;23;20143;-87
2022/01/10 04:34:59;;;;;;;89.25;53.30;;;0.80;99.90;;;;;;6103398;23;20177;-86
2022/01/10 04:37:25;;;;;;;94.72;61.85;;;0.70;99.90;;;;;;6103501;23;20150;-86
2022/01/10 04:39:51;;;;;;;91.15;64.65;;;0.70;99.90;;;;;;6103238;23;20146;-86
2022/01/10 04:42:16;;;;;;;85.57;54.60;;;0.70;99.90;;;;;;6077330;23;20182;-85
2022/01/10 04:44:45;;;;;;;89.20;64.23;;;0.70;99.90;;;;;;6077140;23;20202;-86
2022/01/10 04:47:11;;;;;;;92.13;66.53;;;0.60;99.90;;;;;;6078430;23;20151;-86
2022/01/10 04:50:27;;;;;;;89.20;55.10;;;0.70;99.90;;;;;;6103704;23;20573;-86
2022/01/10 04:52:30;;;;;;;87.40;56.15;;;0.60;99.90;;;;;;6096839;23;20148;-86
2022/01/10 04:54:59;;;;;;;87.82;57.63;;;0.60;99.90;;;;;;6103392;23;20171;-86
2022/01/10 04:57:25;;;;;;;92.40;55.42;;;0.60;99.90;;;;;;6077357;23;20632;-86
2022/01/10 05:00:00;;;;;;;92.85;64.60;;;0.60;99.90;;;;;;6103762;23;20147;-85
2022/01/10 05:02:25;;;;;;;92.72;60.15;;;0.60;99.90;;;;;;6103854;23;20123;-86
2022/01/10 05:05:00;;;;;;;89.27;55.10;;;0.60;99.90;;;;;;6078466;23;20736;-86
2022/01/10 05:07:26;;;;;;;92.78;67.95;;;0.60;99.90;;;;;;6077341;23;20371;-86
2022/01/10 05:10:00;;;;;;;93.57;71.30;;;0.60;99.90;;;;;;6076903;23;20684;-86
2022/01/10 05:12:27;;;;;;;95.47;68.75;;;0.70;99.90;;;;;;6079021;23;20616;-86
2022/01/10 05:15:01;;;;;;;94.55;60.85;;;0.70;99.90;;;;;;6103272;23;20175;-86
2022/01/10 05:17:39;;;;;;;93.28;69.93;;;0.70;99.90;;;;;;6102734;23;20183;-86
2022/01/10 05:20:06;;;;;;;94.35;72.07;;;0.80;99.90;;;;;;6103254;23;20198;-86
2022/01/10 05:22:32;;;;;;;98.28;82.13;;;0.80;99.90;;;;;;6103001;23;20159;-86
2022/01/10 05:25:00;;;;;;;107.35;93.75;;;0.90;99.90;;;;;;6103548;23;20170;-86
2022/01/10 05:27:32;;;;;;;106.97;94.57;;;0.90;99.90;;;;;;6103637;23;20228;-86
2022/01/10 05:30:03;;;;;;;100.70;81.88;;;1.00;99.90;;;;;;6104488;23;20132;-86
2022/01/10 05:32:29;;;;;;;97.68;82.63;;;1.00;99.90;;;;;;6077627;23;20486;-86
2022/01/10 05:34:55;;;;;;;95.13;82.80;;;1.00;99.90;;;;;;6077311;23;20183;-86
2022/01/10 05:37:24;;;;;;;104.07;88.57;;;1.10;99.90;;;;;;6078633;23;20387;-86
2022/01/10 05:39:49;;;;;;;103.47;90.15;;;1.10;99.90;;;;;;6104255;23;20144;-86
2022/01/10 05:42:21;;;;;;;99.27;83.90;;;1.20;99.90;;;;;;6078683;23;20597;-86
2022/01/10 05:44:47;;;;;;;124.05;111.95;;;1.20;99.90;;;;;;6103627;23;20391;-86
2022/01/10 05:47:27;;;;;;;103.03;92.07;;;1.20;99.90;;;;;;6103877;23;20589;-86
2022/01/10 05:50:00;;;;;;;106.07;91.22;;;1.30;99.90;;;;;;6078137;23;20474;-86
2022/01/10 05:52:28;;;;;;;102.75;91.65;;;1.30;99.90;;;;;;6079413;23;20179;-86
2022/01/10 05:54:54;;;;;;;105.80;94.82;;;1.40;99.90;;;;;;6077943;23;20179;-86
2022/01/10 05:57:20;;;;;;;107.87;96.33;;;1.40;99.90;;;;;;6078823;23;20154;-86
2022/01/10 06:00:21;;;;;;;110.82;99.20;;;1.40;99.90;;;;;;6103955;23;20435;-86
2022/01/10 06:07:29;;;;;;;;;;;;;;;;;;;;;
2022/01/10 06:10:45;;;;;;;95.60;83.32;;;1.50;99.90;;;;;;5985295;24;20185;-86
2022/01/10 06:13:40;;;;;;;91.75;59.15;;;1.50;99.90;;;;;;5960563;24;20203;-86
2022/01/10 06:20:07;;;;;;;91.97;68.30;;;1.50;99.90;;;;;;5980008;24;20221;-86
2022/01/10 06:23:08;;;;;;;93.53;70.20;;;1.60;99.90;;;;;;5972830;23;20160;-86
2022/01/10 06:30:08;;;;;;;91.40;67.90;;;1.70;99.90;;;;;;5960688;24;20640;-86
2022/01/10 06:33:27;;;;;;;93.55;80.78;;;1.60;99.90;;;;;;5961037;24;20729;-86
2022/01/10 06:42:30;;;;;;;;;;;;;;;;;;;;;
2022/01/10 06:46:02;;;;;;;96.03;77.70;;;1.70;99.90;;;;;;6053940;23;20222;-86
2022/01/10 06:49:13;;;;;;;91.38;68.00;;;1.80;99.90;;;;;;5993159;23;20153;-86
2022/01/10 06:52:07;;;;;;;101.38;78.22;;;1.80;99.90;;;;;;6012939;23;20149;-86
2022/01/10 06:54:58;;;;;;;99.88;83.25;;;1.80;99.90;;;;;;5987741;23;20696;-85
2022/01/10 06:57:53;;;;;;;94.63;75.55;;;1.80;99.90;;;;;;5964971;24;20166;-85
2022/01/10 07:01:15;;;;;;;;;;;;;;;;;;;;;
2022/01/10 07:03:55;;;;;;;91.10;71.30;;;1.80;99.90;;;;;;6081291;23;20162;-86
2022/01/10 07:06:36;;;;;;;93.20;66.05;;;1.80;99.90;;;;;;6079933;23;20222;-86
2022/01/10 07:09:14;;;;;;;102.40;85.45;;;1.90;99.90;;;;;;6103116;23;20581;-86
2022/01/10 07:17:49;;;;;;;101.45;70.68;;;1.90;99.90;;;;;;6073912;23;20151;-86
2022/01/10 07:20:21;;;;;;;100.85;82.53;;;1.90;99.90;;;;;;6080586;23;20168;-86
2022/01/10 07:38:23;;;;;;;96.90;75.28;;;2.00;99.90;;;;;;6026027;23;20153;-89
2022/01/10 07:50:03;;;;;;;101.55;90.03;;;2.00;99.90;;;;;;6097267;23;20203;-89
2022/01/10 07:56:59;;;;;;;;;;;;;;;;;;;;;
2022/01/10 07:59:55;;;;;;;97.55;72.60;;;2.10;99.90;;;;;;6010288;23;20224;-90
2022/01/10 08:19:41;;;;;;;;;;;;;;;;;;;;;
2022/01/10 08:22:36;;;;;;;88.88;55.38;;;1.90;99.90;;;;;;5897088;24;20563;-89
2022/01/10 08:25:50;;;;;;;93.07;51.72;;;1.90;99.90;;;;;;5797501;24;20179;-90
2022/01/10 08:28:27;;;;;;;89.50;49.40;;;1.90;99.90;;;;;;5818256;24;20154;-89
2022/01/10 08:31:22;;;;;;;92.10;53.67;;;1.90;99.90;;;;;;5980429;24;20205;-89
2022/01/10 08:33:49;;;;;;;92.10;54.95;;;1.90;99.90;;;;;;5957676;24;20187;-86
2022/01/10 08:37:44;;;;;;;;;;;;;;;;;;;;;
2022/01/10 08:50:47;;;;;;;91.30;54.63;;;1.70;99.90;;;;;;5871376;24;20157;-88
2022/01/10 09:02:39;;;;;;;92.90;62.70;;;1.90;99.90;;;;;;6037942;23;20208;-89
2022/01/10 09:06:14;;;;;;;;;;;;;;;;;;;;;
2022/01/10 09:09:28;;;;;;;96.53;71.38;;;1.90;99.90;;;;;;6093003;23;20220;-89
2022/01/10 09:12:50;;;;;;;93.72;64.82;;;2.00;99.90;;;;;;6096959;23;20155;-88
2022/01/10 09:29:40;;;;;;;95.90;76.07;;;2.10;99.90;;;;;;6098111;23;20198;-90
2022/01/10 09:33:14;;;;;;;;;;;;;;;;;;;;;
2022/01/10 09:46:09;;;;;;;97.18;81.75;;;2.40;99.90;;;;;;6115155;23;20228;-89
2022/01/10 09:49:45;;;;;;;109.10;92.30;;;2.40;99.90;;;;;;6098086;23;20148;-89
2022/01/10 09:52:56;;;;;;;97.97;74.53;;;2.50;99.90;;;;;;6014191;23;20177;-89
2022/01/10 10:02:12;;;;;;;101.18;77.07;;;2.70;99.90;;;;;;5807600;24;20217;-89
2022/01/10 10:08:50;;;;;;;;;;;;;;;;;;;;;
2022/01/10 10:36:38;;;;;;;107.65;81.03;;;3.40;99.90;;;;;;6073887;23;20207;-91
2022/01/10 10:43:12;;;;;;;97.10;71.55;;;3.70;99.90;;;;;;5901673;24;20235;-90
2022/01/10 10:49:19;;;;;;;106.72;79.00;;;3.70;99.90;;;;;;6153879;23;20201;-90
2022/01/10 11:27:05;;;;;;;;;;;;;;;;;;;;;
2022/01/10 11:30:18;;;;;;;89.63;47.25;;;4.40;99.90;;;;;;6098413;23;20182;-90
2022/01/10 11:40:10;;;;;;;87.03;39.42;;;4.90;99.90;;;;;;5919474;24;20158;-90
2022/01/10 12:04:08;;;;;;;101.10;59.13;;;4.90;99.90;;;;;;6076810;23;20223;-89
2022/01/10 12:11:31;;;;;;;;;;;;;;;;;;;;;
2022/01/10 14:45:11;;;;;;;92.50;24.88;;;4.90;99.90;;;;;;6104334;23;20206;-85
2022/01/10 15:15:14;;;;;;;91.40;24.60;;;4.60;99.90;;;;;;6090215;23;20202;-86
2022/01/10 15:18:45;;;;;;;;;;;;;;;;;;;;;
2022/01/10 15:37:18;;;;;;;;;;;;;;;;;;;;;
2022/01/10 16:26:52;;;;;;;92.63;42.65;;;2.70;99.90;;;;;;6100661;23;20202;-85
2022/01/10 16:30:23;;;;;;;;;;;;;;;;;;;;;
2022/01/10 16:33:28;;;;;;;91.47;40.17;;;2.60;99.90;;;;;;5960936;24;20237;-87
2022/01/10 16:36:24;;;;;;;94.10;42.80;;;2.50;99.90;;;;;;6076265;23;20168;-86
2022/01/10 16:39:17;;;;;;;95.30;46.78;;;2.40;99.90;;;;;;6074818;23;20151;-84
2022/01/10 16:41:56;;;;;;;91.60;39.22;;;2.40;99.90;;;;;;6074057;23;20143;-85
2022/01/10 16:44:55;;;;;;;;;;;;;;;;;;;;;
2022/01/10 16:48:01;;;;;;;92.38;47.00;;;2.30;99.90;;;;;;6075712;23;20176;-86
2022/01/10 17:00:13;;;;;;;92.18;41.85;;;2.30;99.90;;;;;;6021149;23;20178;-85
2022/01/10 17:03:08;;;;;;;;;;;;;;;;;;;;;
2022/01/10 17:06:09;;;;;;;96.30;52.63;;;2.00;99.90;;;;;;6126197;23;20189;-87
2022/01/10 17:08:51;;;;;;;99.25;52.22;;;2.00;99.90;;;;;;6106168;23;20202;-87
2022/01/10 17:11:52;;;;;;;103.22;56.03;;;1.90;99.90;;;;;;6106580;23;20151;-87
2022/01/10 17:25:31;;;;;;;;;;;;;;;;;;;;;
2022/01/10 17:28:05;;;;;;;94.75;49.22;;;1.70;99.90;;;;;;5930130;24;20272;-87
2022/01/10 17:30:50;;;;;;;100.68;50.42;;;1.60;99.90;;;;;;5907829;24;20159;-87
2022/01/10 17:33:52;;;;;;;93.63;43.92;;;1.70;99.90;;;;;;6021769;23;20153;-87
2022/01/10 17:42:50;;;;;;;108.13;43.63;;;1.80;99.90;;;;;;6131273;23;20157;-85
2022/01/10 17:45:38;;;;;;;109.55;47.88;;;1.80;99.90;;;;;;6131423;23;20163;-86
2022/01/10 17:48:46;;;;;;;126.47;51.63;;;1.70;99.90;;;;;;6106836;23;20174;-87
2022/01/10 17:52:23;;;;;;;118.10;47.83;;;1.70;99.90;;;;;;5990878;23;20232;-86
2022/01/10 17:54:54;;;;;;;117.82;53.50;;;1.70;99.90;;;;;;6011397;23;20181;-87
2022/01/10 17:58:13;;;;;;;;;;;;;;;;;;;;;
2022/01/10 18:01:22;;;;;;;125.57;75.05;;;1.60;99.90;;;;;;6128246;23;20233;-86
2022/01/10 18:04:10;;;;;;;;;;;;;;;;;;;;;
2022/01/10 18:06:56;;;;;;;105.72;57.80;;;1.50;99.90;;;;;;6014089;23;20221;-87
2022/01/10 18:09:52;;;;;;;97.38;49.58;;;1.50;99.90;;;;;;6006910;23;20150;-87
2022/01/10 18:12:30;;;;;;;;;;;;;;;;;;;;;
2022/01/10 18:15:12;;;;;;;102.00;59.92;;;1.50;99.90;;;;;;6081699;23;20261;-86
2022/01/10 18:18:09;;;;;;;101.97;51.70;;;1.50;99.90;;;;;;6102983;23;20672;-86
2022/01/10 18:20:56;;;;;;;108.15;62.88;;;1.50;99.90;;;;;;6132015;23;20562;-86
2022/01/10 18:26:04;;;;;;;107.88;71.30;;;1.50;99.90;;;;;;6129341;23;20199;-86
2022/01/10 18:29:13;;;;;;;108.28;61.05;;;1.40;99.90;;;;;;6105833;23;20181;-86
2022/01/10 18:32:17;;;;;;;100.88;49.50;;;1.40;99.90;;;;;;6105109;23;20155;-85
2022/01/10 18:38:27;;;;;;;101.18;44.88;;;1.50;99.90;;;;;;6066216;23;20147;-85
2022/01/10 18:41:28;;;;;;;93.38;41.63;;;1.50;99.90;;;;;;6105647;23;20597;-85
2022/01/10 18:44:17;;;;;;;97.63;47.30;;;1.50;99.90;;;;;;6104367;23;20166;-85
2022/01/10 18:46:55;;;;;;;106.68;53.28;;;1.50;99.90;;;;;;6131889;23;20147;-85
2022/01/10 18:49:42;;;;;;;105.00;65.90;;;1.60;99.90;;;;;;6105576;23;20223;-86
2022/01/10 18:52:28;;;;;;;104.10;59.38;;;1.50;99.90;;;;;;6104779;23;20146;-85
2022/01/10 18:55:54;;;;;;;105.07;62.95;;;1.50;99.90;;;;;;6105484;23;20182;-86
2022/01/10 18:58:27;;;;;;;108.13;56.97;;;1.50;99.90;;;;;;5970213;24;20150;-86
2022/01/10 19:01:07;;;;;;;105.82;64.22;;;1.50;99.90;;;;;;6067635;23;20153;-85
2022/01/10 19:03:50;;;;;;;103.10;64.45;;;1.50;99.90;;;;;;6104693;23;20205;-86
2022/01/10 19:06:22;;;;;;;108.53;69.90;;;1.50;99.90;;;;;;6104571;23;20178;-86
2022/01/10 19:09:18;;;;;;;116.78;87.80;;;1.50;99.90;;;;;;6104813;23;20158;-86
2022/01/10 19:15:08;;;;;;;123.90;104.13;;;1.60;99.90;;;;;;6106693;23;20182;-86
2022/01/10 19:18:15;;;;;;;127.13;111.18;;;1.50;99.90;;;;;;6104711;23;20150;-87
2022/01/10 19:21:00;;;;;;;115.07;100.55;;;1.60;99.90;;;;;;6115199;23;20217;-86
2022/01/10 21:20:20;;;;;;;113.00;76.18;;;0.90;99.90;;;;;;6007229;23;20223;-89
2022/01/10 21:44:58;;;;;;;;;;;;;;;;;;;;;
2022/01/10 21:51:05;;;;;;;132.88;89.60;;;1.00;99.90;;;;;;5883520;24;20183;-89
2022/01/10 22:21:34;;;;;;;120.43;96.30;;;1.30;99.90;;;;;;6070012;23;20146;-89
2022/01/10 22:32:04;;;;;;;124.35;87.22;;;1.30;99.90;;;;;;5982779;24;20198;-89
2022/01/10 22:34:57;;;;;;;121.18;75.78;;;1.30;99.90;;;;;;5951335;24;20197;-89
2022/01/10 22:37:42;;;;;;;137.70;114.40;;;1.40;99.90;;;;;;5982291;24;20153;-89
2022/01/10 22:47:54;;;;;;;112.57;82.68;;;1.40;99.90;;;;;;5917801;24;20160;-89
2022/01/10 23:08:00;;;;;;;117.28;90.15;;;1.20;99.90;;;;;;5950913;23;20210;-89
2022/01/10 23:11:18;;;;;;;111.28;76.18;;;1.20;99.90;;;;;;5924169;24;20159;-89
2022/01/10 23:20:03;;;;;;;116.50;90.20;;;1.30;99.90;;;;;;6186017;23;20528;-89
2022/01/10 23:22:56;;;;;;;138.88;124.20;;;1.20;99.90;;;;;;6159821;23;20150;-89
2022/01/10 23:25:47;;;;;;;121.85;94.68;;;1.20;99.90;;;;;;6124714;23;20253;-89
2022/01/10 23:33:10;;;;;;;109.72;64.45;;;1.30;99.90;;;;;;5982485;23;20157;-89
2022/01/10 23:46:56;;;;;;;118.93;85.47;;;1.30;99.90;;;;;;6154331;23;20551;-90
2022/01/10 23:53:43;;;;;;;;;;;;;;;;;;;;;
2022/01/10 23:56:15;;;;;;;113.80;92.75;;;1.30;99.90;;;;;;6158235;23;20248;-89
2022/01/10 23:58:44;;;;;;;153.13;138.07;;;1.30;99.90;;;;;;6131587;23;20201;-89
